createdAt,value
2022-12-01T00:01:06.380Z,90.38
2022-12-01T00:03:33.549Z,90.18
2022-12-01T00:06:00.341Z,90.37
2022-12-01T00:08:27.606Z,90.13
2022-12-01T00:10:54.558Z,90.61
2022-12-01T00:13:21.728Z,90.54
2022-12-01T00:15:48.187Z,90.46
2022-12-01T00:18:14.624Z,90.32
2022-12-01T00:20:41.134Z,90.31
2022-12-01T00:23:08.073Z,90.16
2022-12-01T00:25:34.509Z,90.05
2022-12-01T00:28:01.043Z,89.98
2022-12-01T00:30:27.461Z,90.19
2022-12-01T00:32:53.946Z,90.18
2022-12-01T00:35:20.346Z,90.27
2022-12-01T00:37:46.849Z,90.01
2022-12-01T00:40:13.881Z,90.10
2022-12-01T00:42:40.813Z,90.27
2022-12-01T00:45:07.740Z,90.35
2022-12-01T00:47:34.202Z,90.02
2022-12-01T00:50:00.617Z,90.34
2022-12-01T00:52:27.081Z,90.34
2022-12-01T00:54:53.586Z,90.21
2022-12-01T00:57:20.123Z,90.29
2022-12-01T00:59:47.232Z,90.40
2022-12-01T01:02:14.039Z,90.18
2022-12-01T01:04:40.564Z,90.20
2022-12-01T01:07:07.112Z,90.32
2022-12-01T01:09:33.593Z,90.38
2022-12-01T01:12:00.076Z,90.79
2022-12-01T01:14:26.584Z,90.46
2022-12-01T01:16:54.108Z,90.92
2022-12-01T01:19:20.561Z,90.83
2022-12-01T01:21:46.988Z,91.06
2022-12-01T01:24:13.415Z,91.04
2022-12-01T01:26:39.808Z,91.21
2022-12-01T01:29:10.009Z,90.82
2022-12-01T01:31:36.564Z,91.24
2022-12-01T01:34:03.809Z,91.29
2022-12-01T01:36:30.526Z,91.05
2022-12-01T01:38:57.102Z,91.28
2022-12-01T01:41:24.103Z,91.21
2022-12-01T01:43:55.643Z,91.07
2022-12-01T01:46:28.184Z,91.38
2022-12-01T01:49:05.915Z,91.30
2022-12-01T01:51:53.514Z,91.32
2022-12-01T01:54:31.525Z,91.46
2022-12-01T01:57:00.598Z,91.66
2022-12-01T01:59:31.671Z,91.64
2022-12-01T02:02:09.661Z,91.47
2022-12-01T02:04:40.443Z,91.35
2022-12-01T02:07:08.456Z,91.36
2022-12-01T02:09:36.140Z,91.65
2022-12-01T02:12:25.932Z,91.43
2022-12-01T02:15:07.646Z,91.42
2022-12-01T02:17:44.969Z,91.48
2022-12-01T02:20:23.742Z,91.27
2022-12-01T02:23:18.346Z,91.13
2022-12-01T02:26:01.943Z,91.06
2022-12-01T02:28:56.368Z,91.45
2022-12-01T02:31:39.635Z,91.49
2022-12-01T02:34:14.789Z,91.35
2022-12-01T02:36:54.396Z,91.11
2022-12-01T02:39:33.563Z,91.64
2022-12-01T02:42:35.243Z,91.18
2022-12-01T02:45:05.933Z,91.32
2022-12-01T02:47:34.613Z,91.34
2022-12-01T02:50:02.172Z,90.89
2022-12-01T02:52:29.011Z,91.17
2022-12-01T02:54:56.806Z,91.35
2022-12-01T02:57:24.156Z,91.17
2022-12-01T02:59:55.120Z,91.13
2022-12-01T03:02:34.036Z,91.40
2022-12-01T03:05:28.110Z,91.05
2022-12-01T03:08:06.981Z,91.19
2022-12-01T03:10:56.295Z,91.19
2022-12-01T03:13:46.731Z,91.12
2022-12-01T03:16:16.385Z,91.08
2022-12-01T03:19:07.107Z,90.83
2022-12-01T03:21:40.458Z,90.99
2022-12-01T03:24:23.813Z,90.94
2022-12-01T03:26:56.989Z,91.13
2022-12-01T03:29:36.409Z,91.08
2022-12-01T03:32:08.313Z,90.77
2022-12-01T03:34:44.145Z,90.87
2022-12-01T03:37:18.231Z,90.66
2022-12-01T03:39:47.943Z,91.16
2022-12-01T03:42:25.219Z,91.22
2022-12-01T03:44:59.639Z,91.21
2022-12-01T03:47:31.978Z,91.23
2022-12-01T03:50:00.392Z,91.09
2022-12-01T03:52:38.896Z,91.14
2022-12-01T03:55:09.180Z,91.11
2022-12-01T03:57:58.946Z,91.07
2022-12-01T04:00:25.533Z,90.99
2022-12-01T04:02:56.723Z,90.95
2022-12-01T04:05:25.421Z,91.16
2022-12-01T04:07:53.336Z,91.38
2022-12-01T04:10:20.026Z,91.11
2022-12-01T04:12:46.528Z,91.10
2022-12-01T04:15:14.473Z,90.96
2022-12-01T04:17:45.113Z,90.71
2022-12-01T04:20:17.686Z,90.98
2022-12-01T04:22:44.419Z,90.97
2022-12-01T04:25:11.683Z,90.77
2022-12-01T04:27:38.950Z,90.77
2022-12-01T04:30:07.433Z,91.16
2022-12-01T04:32:38.797Z,90.99
2022-12-01T04:35:06.991Z,90.99
2022-12-01T04:37:33.672Z,90.88
2022-12-01T04:40:00.115Z,90.96
2022-12-01T04:42:27.492Z,91.03
2022-12-01T04:44:53.990Z,91.04
2022-12-01T04:47:20.425Z,90.96
2022-12-01T04:49:47.094Z,90.87
2022-12-01T04:52:13.809Z,90.98
2022-12-01T04:54:40.422Z,90.90
2022-12-01T04:57:06.934Z,91.00
2022-12-01T04:59:33.468Z,90.80
2022-12-01T05:01:59.981Z,90.51
2022-12-01T05:04:26.512Z,90.58
2022-12-01T05:06:55.643Z,90.60
2022-12-01T05:09:22.119Z,90.29
2022-12-01T05:11:48.539Z,90.60
2022-12-01T05:14:15.072Z,90.45
2022-12-01T05:16:41.568Z,90.28
2022-12-01T05:19:26.601Z,90.84
2022-12-01T05:21:53.125Z,90.82
2022-12-01T05:24:20.960Z,90.74
2022-12-01T05:26:47.796Z,90.74
2022-12-01T05:29:14.608Z,90.29
2022-12-01T05:31:41.261Z,90.16
2022-12-01T05:34:08.765Z,90.18
2022-12-01T05:36:35.373Z,89.75
2022-12-01T05:39:01.927Z,89.83
2022-12-01T05:41:28.435Z,90.15
2022-12-01T05:43:54.897Z,90.30
2022-12-01T05:46:21.362Z,90.08
2022-12-01T05:48:47.941Z,90.01
2022-12-01T05:51:16.673Z,90.22
2022-12-01T05:53:43.466Z,90.14
2022-12-01T05:56:10.652Z,89.91
2022-12-01T05:58:37.112Z,90.04
2022-12-01T06:01:03.940Z,90.07
2022-12-01T06:03:30.364Z,90.02
2022-12-01T06:05:56.887Z,89.86
2022-12-01T06:08:23.473Z,89.69
2022-12-01T06:10:49.887Z,89.70
2022-12-01T06:13:16.353Z,90.01
2022-12-01T06:15:42.835Z,89.65
2022-12-01T06:18:09.539Z,89.51
2022-12-01T06:20:36.052Z,89.48
2022-12-01T06:23:02.942Z,89.40
2022-12-01T06:25:29.450Z,89.50
2022-12-01T06:27:57.732Z,89.30
2022-12-01T06:30:25.314Z,89.51
2022-12-01T06:32:51.855Z,89.64
2022-12-01T06:35:18.614Z,89.33
2022-12-01T06:37:45.081Z,89.23
2022-12-01T06:40:12.265Z,89.20
2022-12-01T06:42:38.742Z,89.67
2022-12-01T06:45:05.596Z,89.43
2022-12-01T06:47:32.045Z,89.50
2022-12-01T06:49:58.494Z,89.46
2022-12-01T06:52:24.934Z,89.07
2022-12-01T06:54:51.458Z,89.04
2022-12-01T06:57:18.206Z,89.50
2022-12-01T06:59:45.275Z,89.29
2022-12-01T07:02:12.119Z,89.34
2022-12-01T07:04:38.660Z,89.70
2022-12-01T07:07:06.279Z,89.40
2022-12-01T07:09:32.960Z,89.44
2022-12-01T07:11:59.677Z,89.44
2022-12-01T07:14:26.772Z,89.52
2022-12-01T07:16:53.408Z,89.37
2022-12-01T07:19:20.097Z,89.80
2022-12-01T07:21:46.534Z,89.74
2022-12-01T07:24:13.327Z,89.87
2022-12-01T07:26:41.217Z,89.95
2022-12-01T07:29:09.214Z,90.28
2022-12-01T07:31:36.828Z,90.23
2022-12-01T07:34:03.977Z,89.84
2022-12-01T07:36:30.697Z,90.30
2022-12-01T07:38:57.212Z,89.71
2022-12-01T07:41:23.743Z,90.60
2022-12-01T07:43:50.567Z,90.26
2022-12-01T07:46:24.181Z,90.26
2022-12-01T07:48:52.120Z,90.65
2022-12-01T07:51:19.508Z,90.89
2022-12-01T07:53:49.233Z,90.16
2022-12-01T07:56:16.330Z,90.32
2022-12-01T07:58:42.832Z,90.43
2022-12-01T08:01:14.985Z,90.00
2022-12-01T08:03:42.405Z,90.06
2022-12-01T08:06:09.906Z,90.62
2022-12-01T08:08:37.707Z,90.76
2022-12-01T08:11:07.289Z,90.54
2022-12-01T08:13:34.274Z,90.74
2022-12-01T08:16:04.678Z,90.91
2022-12-01T08:18:31.251Z,91.08
2022-12-01T08:20:58.320Z,91.11
2022-12-01T08:23:24.771Z,91.16
2022-12-01T08:25:52.562Z,91.01
2022-12-01T08:28:19.863Z,91.52
2022-12-01T08:30:47.199Z,91.32
2022-12-01T08:33:14.052Z,90.64
2022-12-01T08:35:40.614Z,91.52
2022-12-01T08:38:07.042Z,92.54
2022-12-01T08:40:33.519Z,92.65
2022-12-01T08:42:59.964Z,92.53
2022-12-01T08:45:26.404Z,92.41
2022-12-01T08:47:53.914Z,91.75
2022-12-01T08:50:20.414Z,91.46
2022-12-01T08:52:46.861Z,92.01
2022-12-01T08:55:13.344Z,91.57
2022-12-01T08:57:39.810Z,91.78
2022-12-01T09:00:06.988Z,91.57
2022-12-01T09:02:33.533Z,91.41
2022-12-01T09:05:00.048Z,91.35
2022-12-01T09:07:27.093Z,91.43
2022-12-01T09:09:53.737Z,91.52
2022-12-01T09:12:20.157Z,91.52
2022-12-01T09:14:49.831Z,91.80
2022-12-01T09:17:18.011Z,91.77
2022-12-01T09:19:44.699Z,91.81
2022-12-01T09:22:12.012Z,91.42
2022-12-01T09:24:38.813Z,92.16
2022-12-01T09:27:05.864Z,92.36
2022-12-01T09:29:32.776Z,92.63
2022-12-01T09:32:00.407Z,91.55
2022-12-01T09:34:27.883Z,91.53
2022-12-01T09:36:58.508Z,91.35
2022-12-01T09:39:25.546Z,90.93
2022-12-01T09:42:16.309Z,91.52
2022-12-01T09:44:48.488Z,91.27
2022-12-01T09:47:29.172Z,91.25
2022-12-01T09:50:13.219Z,90.79
2022-12-01T09:52:46.436Z,91.22
2022-12-01T09:55:16.298Z,90.87
2022-12-01T09:57:46.693Z,91.18
2022-12-01T10:00:18.084Z,91.12
2022-12-01T10:02:52.761Z,90.35
2022-12-01T10:05:22.246Z,90.23
2022-12-01T10:07:57.490Z,90.19
2022-12-01T10:10:24.237Z,89.96
2022-12-01T10:12:50.773Z,90.48
2022-12-01T10:15:39.549Z,90.06
2022-12-01T10:18:31.704Z,89.97
2022-12-01T10:21:29.137Z,89.85
2022-12-01T10:24:10.043Z,89.56
2022-12-01T10:26:50.852Z,89.57
2022-12-01T10:29:48.032Z,89.24
2022-12-01T10:32:23.374Z,89.10
2022-12-01T10:34:49.854Z,88.42
2022-12-01T10:37:25.895Z,88.67
2022-12-01T10:39:54.965Z,88.06
2022-12-01T10:42:32.597Z,88.08
2022-12-01T10:45:09.919Z,88.22
2022-12-01T10:47:36.369Z,88.05
2022-12-01T10:50:04.482Z,88.11
2022-12-01T10:52:39.886Z,87.99
2022-12-01T10:55:26.852Z,87.46
2022-12-01T10:58:03.462Z,87.67
2022-12-01T11:03:29.289Z,87.23
2022-12-01T11:05:58.533Z,86.98
2022-12-01T11:08:31.039Z,86.27
2022-12-01T11:10:57.508Z,86.20
2022-12-01T11:13:30.447Z,86.70
2022-12-01T11:16:02.803Z,86.36
2022-12-01T11:18:33.595Z,85.94
2022-12-01T11:21:14.071Z,85.80
2022-12-01T11:23:51.945Z,85.18
2022-12-01T11:26:26.369Z,85.58
2022-12-01T11:28:56.842Z,85.21
2022-12-01T11:31:38.207Z,85.07
2022-12-01T11:34:05.596Z,84.92
2022-12-01T11:36:42.372Z,84.53
2022-12-01T11:39:28.088Z,84.63
2022-12-01T11:42:00.585Z,83.70
2022-12-01T11:44:50.374Z,83.44
2022-12-01T11:47:23.651Z,83.91
2022-12-01T11:49:59.138Z,83.68
2022-12-01T11:52:28.329Z,83.79
2022-12-01T11:55:00.018Z,83.17
2022-12-01T11:57:34.671Z,83.58
2022-12-01T12:00:05.869Z,82.71
2022-12-01T12:02:43.673Z,81.99
2022-12-01T12:05:16.038Z,82.17
2022-12-01T12:07:48.273Z,81.46
2022-12-01T12:10:30.075Z,81.53
2022-12-01T12:13:24.241Z,81.29
2022-12-01T12:16:26.408Z,81.42
2022-12-01T12:19:07.258Z,81.33
2022-12-01T12:21:44.922Z,80.55
2022-12-01T12:24:26.352Z,79.79
2022-12-01T12:26:58.892Z,79.53
2022-12-01T12:29:42.982Z,79.96
2022-12-01T12:32:36.511Z,79.95
2022-12-01T12:35:09.868Z,79.72
2022-12-01T12:38:11.554Z,80.82
2022-12-01T12:40:47.165Z,80.89
2022-12-01T12:43:31.492Z,80.87
2022-12-01T12:46:11.732Z,80.21
2022-12-01T12:49:18.813Z,80.41
2022-12-01T12:51:56.131Z,79.28
2022-12-01T12:54:33.500Z,79.64
2022-12-01T12:57:26.274Z,78.94
2022-12-01T13:00:07.174Z,78.88
2022-12-01T13:03:01.641Z,78.45
2022-12-01T13:05:40.301Z,78.33
2022-12-01T13:08:28.565Z,78.71
2022-12-01T13:11:11.448Z,78.82
2022-12-01T13:14:04.063Z,77.71
2022-12-01T13:16:44.313Z,77.30
2022-12-01T13:19:16.602Z,77.09
2022-12-01T13:21:45.212Z,77.34
2022-12-01T13:24:23.374Z,76.81
2022-12-01T13:26:55.522Z,77.09
2022-12-01T13:29:24.622Z,76.59
2022-12-01T13:31:53.257Z,77.95
2022-12-01T13:34:29.093Z,77.02
2022-12-01T13:36:56.406Z,76.66
2022-12-01T13:39:28.983Z,76.61
2022-12-01T13:42:27.016Z,76.60
2022-12-01T13:44:56.977Z,76.70
2022-12-01T13:47:38.768Z,76.10
2022-12-01T13:50:38.961Z,77.52
2022-12-01T13:53:17.718Z,77.08
2022-12-01T13:56:06.963Z,77.45
2022-12-01T13:58:33.364Z,77.56
2022-12-01T14:01:21.965Z,76.90
2022-12-01T14:03:58.054Z,75.94
2022-12-01T14:06:30.680Z,75.26
2022-12-01T14:09:05.028Z,75.31
2022-12-01T14:11:34.526Z,75.58
2022-12-01T14:14:12.267Z,75.53
2022-12-01T14:16:49.835Z,74.94
2022-12-01T14:19:28.527Z,74.95
2022-12-01T14:21:55.037Z,74.93
2022-12-01T14:24:28.403Z,75.35
2022-12-01T14:26:55.563Z,75.24
2022-12-01T14:29:31.315Z,75.80
2022-12-01T14:32:00.849Z,75.20
2022-12-01T14:34:31.601Z,76.06
2022-12-01T14:37:09.862Z,76.29
2022-12-01T14:39:43.668Z,76.77
2022-12-01T14:42:47.527Z,76.76
2022-12-01T14:45:22.562Z,77.54
2022-12-01T14:48:08.429Z,77.25
2022-12-01T14:50:46.417Z,77.07
2022-12-01T14:53:31.136Z,75.61
2022-12-01T14:56:08.313Z,75.72
2022-12-01T14:58:34.927Z,74.96
2022-12-01T15:01:10.203Z,76.90
2022-12-01T15:03:47.206Z,75.88
2022-12-01T15:06:22.385Z,76.66
2022-12-01T15:09:32.050Z,75.68
2022-12-01T15:12:00.440Z,75.72
2022-12-01T15:14:32.760Z,75.99
2022-12-01T15:16:59.623Z,75.82
2022-12-01T15:19:36.782Z,76.54
2022-12-01T15:22:14.552Z,76.74
2022-12-01T15:24:41.674Z,77.50
2022-12-01T15:27:32.373Z,78.01
2022-12-01T15:30:04.192Z,78.54
2022-12-01T15:32:34.408Z,79.05
2022-12-01T15:35:03.494Z,79.24
2022-12-01T15:37:40.557Z,79.44
2022-12-01T15:40:59.737Z,79.80
2022-12-01T15:43:14.316Z,80.19
2022-12-01T15:45:50.920Z,80.58
2022-12-01T15:48:26.849Z,80.43
2022-12-01T15:51:03.564Z,81.20
2022-12-01T15:53:33.408Z,81.19
2022-12-01T15:56:03.063Z,81.44
2022-12-01T15:58:32.943Z,81.36
2022-12-01T16:01:02.058Z,81.75
2022-12-01T16:03:28.956Z,81.52
2022-12-01T16:05:56.230Z,81.53
2022-12-01T16:08:27.896Z,81.99
2022-12-01T16:11:11.187Z,82.16
2022-12-01T16:13:47.875Z,82.10
2022-12-01T16:17:02.066Z,82.42
2022-12-01T16:19:33.563Z,82.40
2022-12-01T16:22:12.423Z,82.46
2022-12-01T16:24:52.667Z,82.94
2022-12-01T16:27:25.544Z,83.22
2022-12-01T16:30:01.666Z,83.50
2022-12-01T16:32:40.124Z,83.55
2022-12-01T16:35:23.110Z,83.20
2022-12-01T16:37:49.544Z,83.58
2022-12-01T16:40:19.375Z,83.72
2022-12-01T16:42:46.857Z,83.72
2022-12-01T16:45:14.935Z,83.41
2022-12-01T16:47:42.468Z,83.49
2022-12-01T16:50:20.413Z,83.16
2022-12-01T16:52:47.054Z,83.47
2022-12-01T16:55:31.632Z,83.45
2022-12-01T16:57:58.108Z,83.87
2022-12-01T17:00:25.001Z,84.11
2022-12-01T17:02:52.704Z,84.12
2022-12-01T17:05:19.412Z,84.17
2022-12-01T17:07:46.038Z,84.41
2022-12-01T17:10:12.792Z,84.05
2022-12-01T17:12:39.736Z,84.11
2022-12-01T17:15:06.706Z,84.53
2022-12-01T17:17:33.408Z,84.49
2022-12-01T17:19:59.876Z,84.24
2022-12-01T17:22:26.308Z,84.07
2022-12-01T17:24:54.697Z,83.75
2022-12-01T17:27:22.276Z,83.87
2022-12-01T17:29:48.853Z,83.77
2022-12-01T17:32:15.495Z,84.05
2022-12-01T17:34:41.953Z,84.41
2022-12-01T17:37:08.388Z,84.59
2022-12-01T17:39:34.882Z,84.52
2022-12-01T17:42:01.386Z,84.64
2022-12-01T17:44:27.852Z,85.06
2022-12-01T17:46:54.410Z,85.05
2022-12-01T17:49:21.258Z,85.22
2022-12-01T17:51:47.844Z,85.31
2022-12-01T17:54:14.488Z,85.13
2022-12-01T17:56:41.034Z,85.34
2022-12-01T17:59:07.520Z,85.76
2022-12-01T18:01:34.150Z,85.63
2022-12-01T18:04:00.706Z,84.96
2022-12-01T18:06:27.616Z,84.61
2022-12-01T18:08:54.953Z,85.11
2022-12-01T18:11:22.106Z,84.69
2022-12-01T18:13:50.456Z,84.69
2022-12-01T18:16:29.071Z,84.95
2022-12-01T18:18:57.554Z,84.95
2022-12-01T18:21:25.485Z,84.72
2022-12-01T18:23:54.965Z,85.37
2022-12-01T18:26:22.812Z,84.82
2022-12-01T18:29:01.040Z,84.70
2022-12-01T18:31:29.153Z,85.26
2022-12-01T18:33:59.182Z,85.40
2022-12-01T18:36:26.480Z,85.10
2022-12-01T18:38:54.564Z,85.33
2022-12-01T18:41:21.525Z,85.56
2022-12-01T18:43:48.113Z,85.64
2022-12-01T18:46:16.599Z,85.87
2022-12-01T18:48:52.019Z,85.36
2022-12-01T18:51:19.325Z,85.68
2022-12-01T18:53:46.136Z,85.52
2022-12-01T18:56:15.214Z,85.19
2022-12-01T18:58:42.327Z,85.35
2022-12-01T19:01:24.439Z,85.61
2022-12-01T19:03:51.421Z,85.36
2022-12-01T19:06:18.345Z,85.37
2022-12-01T19:08:44.872Z,85.02
2022-12-01T19:11:11.308Z,84.89
2022-12-01T19:13:37.832Z,85.33
2022-12-01T19:16:26.588Z,85.22
2022-12-01T19:18:53.298Z,84.87
2022-12-01T19:21:20.281Z,84.87
2022-12-01T19:23:46.929Z,84.58
2022-12-01T19:26:16.165Z,84.50
2022-12-01T19:28:45.361Z,85.11
2022-12-01T19:31:17.675Z,85.28
2022-12-01T19:33:44.684Z,85.20
2022-12-01T19:36:13.945Z,85.14
2022-12-01T19:38:41.042Z,84.78
2022-12-01T19:41:09.202Z,85.15
2022-12-01T19:43:36.386Z,85.48
2022-12-01T19:46:11.823Z,85.60
2022-12-01T19:48:38.671Z,85.00
2022-12-01T19:51:05.462Z,85.76
2022-12-01T19:53:34.006Z,85.72
2022-12-01T19:56:05.023Z,85.91
2022-12-01T19:58:34.787Z,86.13
2022-12-01T20:01:06.659Z,86.47
2022-12-01T20:03:33.730Z,86.09
2022-12-01T20:06:05.296Z,86.03
2022-12-01T20:08:35.666Z,86.14
2022-12-01T20:11:05.986Z,86.35
2022-12-01T20:13:34.017Z,86.03
2022-12-01T20:16:05.650Z,85.68
2022-12-01T20:18:32.221Z,85.95
2022-12-01T20:21:05.754Z,85.64
2022-12-01T20:23:33.166Z,86.25
2022-12-01T20:26:05.614Z,86.76
2022-12-01T20:28:32.845Z,86.84
2022-12-01T20:30:59.673Z,86.59
2022-12-01T20:33:26.802Z,86.49
2022-12-01T20:35:53.306Z,86.56
2022-12-01T20:38:25.764Z,86.99
2022-12-01T20:40:53.822Z,87.03
2022-12-01T20:43:20.324Z,87.42
2022-12-01T20:45:46.932Z,87.46
2022-12-01T20:48:14.129Z,86.93
2022-12-01T20:50:40.715Z,86.74
2022-12-01T20:53:07.401Z,86.25
2022-12-01T20:55:36.135Z,86.08
2022-12-01T20:58:04.203Z,85.96
2022-12-01T21:00:31.503Z,85.94
2022-12-01T21:02:57.963Z,86.54
2022-12-01T21:05:25.494Z,86.60
2022-12-01T21:07:52.041Z,86.75
2022-12-01T21:10:20.298Z,86.50
2022-12-01T21:13:09.393Z,86.67
2022-12-01T21:15:46.330Z,86.60
2022-12-01T21:18:21.192Z,86.97
2022-12-01T21:20:50.589Z,86.84
2022-12-01T21:23:17.337Z,86.65
2022-12-01T21:25:44.790Z,87.21
2022-12-01T21:28:20.191Z,87.45
2022-12-01T21:30:48.180Z,87.07
2022-12-01T21:33:27.516Z,87.12
2022-12-01T21:35:55.826Z,87.30
2022-12-01T21:38:22.803Z,87.27
2022-12-01T21:40:49.460Z,86.89
2022-12-01T21:43:24.360Z,87.10
2022-12-01T21:46:00.384Z,86.96
2022-12-01T21:48:34.069Z,86.79
2022-12-01T21:51:02.354Z,87.23
2022-12-01T21:53:36.205Z,87.03
2022-12-01T21:56:03.053Z,87.76
2022-12-01T21:58:36.287Z,87.90
2022-12-01T22:01:26.115Z,87.55
2022-12-01T22:04:00.535Z,87.67
2022-12-01T22:06:40.926Z,87.49
2022-12-01T22:09:42.880Z,87.60
2022-12-01T22:12:27.581Z,87.63
2022-12-01T22:15:00.089Z,87.78
2022-12-01T22:17:27.732Z,87.81
2022-12-01T22:20:00.030Z,87.76
2022-12-01T22:22:28.921Z,88.10
2022-12-01T22:24:59.315Z,88.00
2022-12-01T22:27:43.238Z,88.48
2022-12-01T22:30:09.601Z,88.23
2022-12-01T22:32:56.309Z,88.51
2022-12-01T22:35:31.588Z,88.64
2022-12-01T22:38:07.107Z,88.36
2022-12-01T22:40:36.380Z,88.47
2022-12-01T22:43:18.143Z,88.72
2022-12-01T22:46:11.728Z,88.86
2022-12-01T22:48:47.630Z,88.68
2022-12-01T22:51:14.040Z,88.60
2022-12-01T22:53:41.989Z,88.90
2022-12-01T22:56:26.275Z,88.98
2022-12-01T22:58:53.433Z,89.19
2022-12-01T23:01:33.561Z,89.03
2022-12-01T23:04:22.533Z,88.75
2022-12-01T23:06:48.933Z,88.97
2022-12-01T23:09:15.557Z,88.80
2022-12-01T23:11:50.893Z,89.04
2022-12-01T23:14:21.253Z,88.84
2022-12-01T23:16:48.203Z,88.62
2022-12-01T23:19:14.649Z,89.07
2022-12-01T23:21:41.110Z,89.13
2022-12-01T23:24:13.016Z,88.81
2022-12-01T23:26:39.466Z,88.85
2022-12-01T23:29:05.884Z,88.75
2022-12-01T23:31:32.507Z,88.87
2022-12-01T23:33:59.113Z,88.68
2022-12-01T23:36:28.918Z,89.12
2022-12-01T23:39:02.480Z,88.79
2022-12-01T23:41:38.759Z,88.72
2022-12-01T23:44:20.288Z,88.81
2022-12-01T23:46:49.770Z,89.13
2022-12-01T23:49:20.216Z,88.66
2022-12-01T23:51:59.210Z,88.75
2022-12-01T23:54:34.573Z,88.31
2022-12-01T23:57:04.157Z,88.26
2022-12-01T23:59:31.936Z,88.26
